createdAt,value
2019-04-01T00:01:27.529Z,5.10
2019-04-01T00:03:56.812Z,5.20
2019-04-01T00:06:26.032Z,5.20
2019-04-01T00:08:55.198Z,5.20
2019-04-01T00:11:24.446Z,5.10
2019-04-01T00:13:53.703Z,5.10
2019-04-01T00:20:08.099Z,5.00
2019-04-01T00:22:37.331Z,4.90
2019-04-01T00:25:06.866Z,4.90
2019-04-01T00:27:36.055Z,4.90
2019-04-01T00:30:05.714Z,4.80
2019-04-01T00:32:34.858Z,4.80
2019-04-01T00:35:04.266Z,4.80
2019-04-01T00:37:33.406Z,4.70
2019-04-01T00:40:02.647Z,4.70
2019-04-01T00:42:42.561Z,4.60
2019-04-01T00:45:14.958Z,4.60
2019-04-01T00:47:44.091Z,4.60
2019-04-01T00:50:13.372Z,4.50
2019-04-01T00:52:42.519Z,4.50
2019-04-01T00:55:11.769Z,4.40
2019-04-01T00:57:40.939Z,4.40
2019-04-01T01:00:10.578Z,4.30
2019-04-01T01:02:39.790Z,4.30
2019-04-01T01:05:09.078Z,4.30
2019-04-01T01:07:38.358Z,4.30
2019-04-01T01:10:08.074Z,4.30
2019-04-01T01:12:37.323Z,4.30
2019-04-01T01:15:07.082Z,4.30
2019-04-01T01:17:36.247Z,4.30
2019-04-01T01:20:05.969Z,4.20
2019-04-01T01:22:35.130Z,4.20
2019-04-01T01:25:04.482Z,4.20
2019-04-01T01:27:33.673Z,4.20
2019-04-01T01:30:02.930Z,4.20
2019-04-01T01:32:32.171Z,4.20
2019-04-01T01:35:01.307Z,4.20
2019-04-01T01:37:30.586Z,4.30
2019-04-01T01:39:59.731Z,4.30
2019-04-01T01:42:28.978Z,4.30
2019-04-01T01:44:58.353Z,4.30
2019-04-01T01:47:27.530Z,4.30
2019-04-01T01:49:56.735Z,4.30
2019-04-01T01:52:25.908Z,4.30
2019-04-01T01:54:55.119Z,4.30
2019-04-01T01:57:24.320Z,4.30
2019-04-01T01:59:53.527Z,4.30
2019-04-01T02:02:22.772Z,4.40
2019-04-01T02:04:51.989Z,4.40
2019-04-01T02:07:21.155Z,4.30
2019-04-01T02:09:50.307Z,4.30
2019-04-01T02:12:19.566Z,4.20
2019-04-01T02:14:48.699Z,4.30
2019-04-01T02:17:17.923Z,4.30
2019-04-01T02:19:47.095Z,4.20
2019-04-01T02:22:16.272Z,4.20
2019-04-01T02:24:45.482Z,4.20
2019-04-01T02:27:14.658Z,4.20
2019-04-01T02:29:43.804Z,4.20
2019-04-01T02:32:12.996Z,4.20
2019-04-01T02:34:42.136Z,4.20
2019-04-01T02:37:11.600Z,4.20
2019-04-01T02:39:40.743Z,4.20
2019-04-01T02:42:10.119Z,4.20
2019-04-01T02:44:39.325Z,4.20
2019-04-01T02:47:08.598Z,4.30
2019-04-01T02:49:37.738Z,4.30
2019-04-01T02:52:06.876Z,4.20
2019-04-01T02:54:36.054Z,4.20
2019-04-01T02:57:05.488Z,4.20
2019-04-01T02:59:34.796Z,4.10
2019-04-01T03:02:04.018Z,4.10
2019-04-01T03:04:33.345Z,4.00
2019-04-01T03:07:02.561Z,4.10
2019-04-01T03:09:31.779Z,4.10
2019-04-01T03:12:01.068Z,4.10
2019-04-01T03:14:30.343Z,4.10
2019-04-01T03:16:59.559Z,4.10
2019-04-01T03:19:28.803Z,4.10
2019-04-01T03:21:58.091Z,4.10
2019-04-01T03:24:27.276Z,4.10
2019-04-01T03:26:56.555Z,4.10
2019-04-01T03:29:25.788Z,4.10
2019-04-01T03:31:55.011Z,4.00
2019-04-01T03:34:24.256Z,4.00
2019-04-01T03:36:53.471Z,4.00
2019-04-01T03:39:22.638Z,4.00
2019-04-01T03:41:51.915Z,3.90
2019-04-01T03:44:21.229Z,3.90
2019-04-01T03:46:50.444Z,3.80
2019-04-01T03:49:19.764Z,3.90
2019-04-01T03:51:48.909Z,3.90
2019-04-01T03:54:18.143Z,3.90
2019-04-01T03:56:47.414Z,3.90
2019-04-01T03:59:16.811Z,3.80
2019-04-01T04:01:47.027Z,3.70
2019-04-01T04:04:16.277Z,3.70
2019-04-01T04:06:45.499Z,3.60
2019-04-01T04:09:14.843Z,3.60
2019-04-01T04:11:44.058Z,3.60
2019-04-01T04:14:13.191Z,3.60
2019-04-01T04:16:42.386Z,3.60
2019-04-01T04:19:11.742Z,3.60
2019-04-01T04:21:41.063Z,3.60
2019-04-01T04:24:10.471Z,3.60
2019-04-01T04:26:39.726Z,3.60
2019-04-01T04:29:08.928Z,3.50
2019-04-01T04:31:38.099Z,3.50
2019-04-01T04:34:07.321Z,3.50
2019-04-01T04:36:36.558Z,3.50
2019-04-01T04:39:06.903Z,3.50
2019-04-01T04:41:36.146Z,3.50
2019-04-01T04:44:05.302Z,3.50
2019-04-01T04:46:34.459Z,3.40
2019-04-01T04:49:03.618Z,3.40
2019-04-01T04:51:32.783Z,3.40
2019-04-01T04:54:01.931Z,3.30
2019-04-01T04:56:31.193Z,3.30
2019-04-01T04:59:00.407Z,3.30
2019-04-01T05:01:29.727Z,3.30
2019-04-01T05:03:58.862Z,3.30
2019-04-01T05:06:28.030Z,3.30
2019-04-01T05:08:57.245Z,3.30
2019-04-01T05:11:26.417Z,3.30
2019-04-01T05:13:58.331Z,3.30
2019-04-01T05:16:27.539Z,3.30
2019-04-01T05:18:56.707Z,3.40
2019-04-01T05:21:26.318Z,3.40
2019-04-01T05:23:55.859Z,3.30
2019-04-01T05:26:26.773Z,3.40
2019-04-01T05:28:57.506Z,3.40
2019-04-01T05:31:28.344Z,3.40
2019-04-01T05:34:00.463Z,3.40
2019-04-01T05:36:31.565Z,3.50
2019-04-01T05:39:00.988Z,3.50
2019-04-01T05:41:30.156Z,3.50
2019-04-01T05:44:02.478Z,3.50
2019-04-01T05:46:31.949Z,3.90
2019-04-01T05:49:01.267Z,4.30
2019-04-01T05:51:30.482Z,4.80
2019-04-01T05:53:59.646Z,5.20
2019-04-01T05:56:28.883Z,5.10
2019-04-01T05:58:58.754Z,5.20
2019-04-01T06:01:33.635Z,5.10
2019-04-01T06:04:02.903Z,5.10
2019-04-01T06:06:32.075Z,5.30
2019-04-01T06:09:01.298Z,5.40
2019-04-01T06:11:30.480Z,5.70
2019-04-01T06:13:59.714Z,5.80
2019-04-01T06:16:28.937Z,5.90
2019-04-01T06:18:58.102Z,6.10
2019-04-01T06:21:27.450Z,6.40
2019-04-01T06:23:56.987Z,6.70
2019-04-01T06:26:26.130Z,7.00
2019-04-01T06:28:55.296Z,7.30
2019-04-01T06:31:24.435Z,7.50
2019-04-01T06:33:53.732Z,7.70
2019-04-01T06:36:22.962Z,8.10
2019-04-01T06:38:52.231Z,8.40
2019-04-01T06:41:21.442Z,8.50
2019-04-01T06:43:50.688Z,8.80
2019-04-01T06:46:20.027Z,8.80
2019-04-01T06:48:49.207Z,8.80
2019-04-01T06:51:21.084Z,9.10
2019-04-01T06:53:50.271Z,9.20
2019-04-01T06:56:19.638Z,9.40
2019-04-01T06:58:48.875Z,9.50
2019-04-01T07:01:18.311Z,9.40
2019-04-01T07:03:47.520Z,9.60
2019-04-01T07:06:16.771Z,9.60
2019-04-01T07:08:45.919Z,9.80
2019-04-01T07:11:15.115Z,9.70
2019-04-01T07:13:44.965Z,10.00
2019-04-01T07:16:15.913Z,9.90
2019-04-01T07:18:45.258Z,10.30
2019-04-01T07:21:14.434Z,10.40
2019-04-01T07:23:44.039Z,10.20
2019-04-01T07:26:13.317Z,10.20
2019-04-01T07:28:42.650Z,10.40
2019-04-01T07:31:11.818Z,10.40
2019-04-01T07:33:40.959Z,10.60
2019-04-01T07:36:10.195Z,10.60
2019-04-01T07:38:39.354Z,10.70
2019-04-01T07:41:08.635Z,10.60
2019-04-01T07:43:38.227Z,10.70
2019-04-01T07:46:08.264Z,10.80
2019-04-01T07:48:37.695Z,10.80
2019-04-01T07:51:07.384Z,10.70
2019-04-01T07:53:36.707Z,10.50
2019-04-01T07:56:06.265Z,10.50
2019-04-01T07:58:35.605Z,10.90
2019-04-01T08:01:04.802Z,10.60
2019-04-01T08:03:33.967Z,10.30
2019-04-01T08:06:03.307Z,10.00
2019-04-01T08:08:33.048Z,9.60
2019-04-01T08:11:02.261Z,9.50
2019-04-01T08:13:31.439Z,9.40
2019-04-01T08:16:00.875Z,9.30
2019-04-01T08:18:33.702Z,9.30
2019-04-01T08:21:01.059Z,9.60
2019-04-01T08:23:30.503Z,9.60
2019-04-01T08:25:59.647Z,9.70
2019-04-01T08:28:29.008Z,9.60
2019-04-01T08:30:58.223Z,9.60
2019-04-01T08:33:27.406Z,9.60
2019-04-01T08:35:56.744Z,9.70
2019-04-01T08:38:25.991Z,9.80
2019-04-01T08:40:55.264Z,9.70
2019-04-01T08:43:24.710Z,9.80
2019-04-01T08:45:53.867Z,9.80
2019-04-01T08:48:23.049Z,9.90
2019-04-01T08:50:52.183Z,9.90
2019-04-01T08:53:21.346Z,9.90
2019-04-01T08:55:50.663Z,10.00
2019-04-01T08:58:20.407Z,10.00
2019-04-01T09:00:49.641Z,10.10
2019-04-01T09:03:19.326Z,10.10
2019-04-01T09:05:48.652Z,10.20
2019-04-01T09:08:17.971Z,10.10
2019-04-01T09:10:47.290Z,10.00
2019-04-01T09:13:16.782Z,10.00
2019-04-01T09:15:45.944Z,10.10
2019-04-01T09:18:15.187Z,10.10
2019-04-01T09:20:44.582Z,10.20
2019-04-01T09:23:13.802Z,10.30
2019-04-01T09:25:43.000Z,10.40
2019-04-01T09:28:12.199Z,10.50
2019-04-01T09:30:41.366Z,10.50
2019-04-01T09:33:10.563Z,10.50
2019-04-01T09:35:41.091Z,10.50
2019-04-01T09:38:10.371Z,10.60
2019-04-01T09:40:39.547Z,10.60
2019-04-01T09:43:08.777Z,10.60
2019-04-01T09:45:38.015Z,10.70
2019-04-01T09:48:07.183Z,10.70
2019-04-01T09:50:36.367Z,10.80
2019-04-01T09:53:05.522Z,10.90
2019-04-01T09:55:34.707Z,10.90
2019-04-01T09:58:03.886Z,10.80
2019-04-01T10:00:33.090Z,10.90
2019-04-01T10:03:02.231Z,10.80
2019-04-01T10:05:31.411Z,10.80
2019-04-01T10:08:00.552Z,10.80
2019-04-01T10:10:29.719Z,10.90
2019-04-01T10:12:58.854Z,10.90
2019-04-01T10:15:28.113Z,10.90
2019-04-01T10:17:57.330Z,11.00
2019-04-01T10:20:26.571Z,11.10
2019-04-01T10:22:55.800Z,11.10
2019-04-01T10:25:24.988Z,11.10
2019-04-01T10:27:54.211Z,11.20
2019-04-01T10:30:24.070Z,11.30
2019-04-01T10:32:53.219Z,11.40
2019-04-01T10:35:22.523Z,11.50
2019-04-01T10:37:51.828Z,11.50
2019-04-01T10:40:21.075Z,11.40
2019-04-01T10:42:50.373Z,11.40
2019-04-01T10:45:19.700Z,11.40
2019-04-01T10:47:48.867Z,11.40
2019-04-01T10:50:18.484Z,11.50
2019-04-01T10:52:47.759Z,11.60
2019-04-01T10:55:17.062Z,11.60
2019-04-01T10:57:46.457Z,11.60
2019-04-01T11:00:16.334Z,11.60
2019-04-01T11:02:45.611Z,11.70
2019-04-01T11:05:14.940Z,11.80
2019-04-01T11:07:44.271Z,11.80
2019-04-01T11:10:13.842Z,11.70
2019-04-01T11:12:43.022Z,11.80
2019-04-01T11:15:15.513Z,11.80
2019-04-01T11:17:44.057Z,11.80
2019-04-01T11:20:13.675Z,11.90
2019-04-01T11:22:42.967Z,12.00
2019-04-01T11:25:12.923Z,12.00
2019-04-01T11:27:42.106Z,12.00
2019-04-01T11:30:13.712Z,12.10
2019-04-01T11:32:42.714Z,12.20
2019-04-01T11:35:12.391Z,12.30
2019-04-01T11:37:41.948Z,12.20
2019-04-01T11:40:12.470Z,12.10
2019-04-01T11:42:41.958Z,12.10
2019-04-01T11:45:11.579Z,12.10
2019-04-01T11:47:40.758Z,12.20
2019-04-01T11:50:10.041Z,12.40
2019-04-01T11:52:39.291Z,12.40
2019-04-01T11:55:09.514Z,12.30
2019-04-01T11:57:40.446Z,12.30
2019-04-01T12:00:13.808Z,12.30
2019-04-01T12:02:43.071Z,12.40
2019-04-01T12:05:13.238Z,12.40
2019-04-01T12:07:42.501Z,12.40
2019-04-01T12:10:11.924Z,12.50
2019-04-01T12:12:41.090Z,12.60
2019-04-01T12:15:12.485Z,12.60
2019-04-01T12:17:42.125Z,12.50
2019-04-01T12:20:11.487Z,12.60
2019-04-01T12:22:42.240Z,12.70
2019-04-01T12:25:11.609Z,12.70
2019-04-01T12:27:40.951Z,12.80
2019-04-01T12:30:10.163Z,12.60
2019-04-01T12:32:39.336Z,12.70
2019-04-01T12:35:08.499Z,12.70
2019-04-01T12:37:37.664Z,12.80
2019-04-01T12:40:07.063Z,12.90
2019-04-01T12:42:36.375Z,12.90
2019-04-01T12:45:06.971Z,12.80
2019-04-01T12:47:36.168Z,12.80
2019-04-01T12:50:05.471Z,12.80
2019-04-01T12:52:34.651Z,12.90
2019-04-01T12:55:04.075Z,12.90
2019-04-01T12:57:33.322Z,12.90
2019-04-01T13:00:02.531Z,12.80
2019-04-01T13:02:31.755Z,12.70
2019-04-01T13:05:01.096Z,12.70
2019-04-01T13:07:30.242Z,12.80
2019-04-01T13:09:59.419Z,12.80
2019-04-01T13:12:28.577Z,12.70
2019-04-01T13:14:57.819Z,12.80
2019-04-01T13:17:27.051Z,12.80
2019-04-01T13:19:56.227Z,12.90
2019-04-01T13:22:25.378Z,12.90
2019-04-01T13:24:54.560Z,12.90
2019-04-01T13:27:23.806Z,13.00
2019-04-01T13:29:53.139Z,13.00
2019-04-01T13:32:22.519Z,13.00
2019-04-01T13:34:51.771Z,12.80
2019-04-01T13:37:21.004Z,12.90
2019-04-01T13:39:50.243Z,12.80
2019-04-01T13:42:19.471Z,13.00
2019-04-01T13:44:48.647Z,13.00
2019-04-01T13:47:17.872Z,12.90
2019-04-01T13:49:47.042Z,12.90
2019-04-01T13:52:16.190Z,13.00
2019-04-01T13:54:45.459Z,13.00
2019-04-01T13:57:14.711Z,13.00
2019-04-01T13:59:49.581Z,12.90
2019-04-01T14:02:14.991Z,12.90
2019-04-01T14:04:44.161Z,12.90
2019-04-01T14:07:13.530Z,13.00
2019-04-01T14:09:42.688Z,12.90
2019-04-01T14:12:11.929Z,13.00
2019-04-01T14:14:41.210Z,13.00
2019-04-01T14:17:10.422Z,13.10
2019-04-01T14:19:39.574Z,13.20
2019-04-01T14:22:08.744Z,13.20
2019-04-01T14:24:37.976Z,13.10
2019-04-01T14:27:07.235Z,13.00
2019-04-01T14:29:36.744Z,13.00
2019-04-01T14:32:06.275Z,13.00
2019-04-01T14:34:35.621Z,13.00
2019-04-01T14:37:05.219Z,13.00
2019-04-01T14:39:34.891Z,13.10
2019-04-01T14:42:04.331Z,13.10
2019-04-01T14:44:33.543Z,13.10
2019-04-01T14:47:03.664Z,13.10
2019-04-01T14:49:33.379Z,13.00
2019-04-01T14:52:02.692Z,13.00
2019-04-01T14:54:32.111Z,13.00
2019-04-01T14:57:01.509Z,13.00
2019-04-01T14:59:30.667Z,13.00
2019-04-01T15:02:03.569Z,13.00
2019-04-01T15:04:30.807Z,13.10
2019-04-01T15:07:00.004Z,13.10
2019-04-01T15:09:29.183Z,13.10
2019-04-01T15:11:58.330Z,13.00
2019-04-01T15:14:27.503Z,13.00
2019-04-01T15:16:56.651Z,13.10
2019-04-01T15:19:26.908Z,13.10
2019-04-01T15:21:56.391Z,13.00
2019-04-01T15:24:25.675Z,13.00
2019-04-01T15:26:54.826Z,13.00
2019-04-01T15:29:23.998Z,13.00
2019-04-01T15:31:54.116Z,13.00
2019-04-01T15:34:23.407Z,12.90
2019-04-01T15:36:52.617Z,13.00
2019-04-01T15:39:21.867Z,12.90
2019-04-01T15:41:51.107Z,12.90
2019-04-01T15:44:20.399Z,12.90
2019-04-01T15:46:49.565Z,12.90
2019-04-01T15:49:18.807Z,12.80
2019-04-01T15:51:48.003Z,12.80
2019-04-01T15:54:17.254Z,12.80
2019-04-01T15:56:46.432Z,12.80
2019-04-01T15:59:15.615Z,12.80
2019-04-01T16:01:44.762Z,12.80
2019-04-01T16:04:16.393Z,12.70
2019-04-01T16:06:44.807Z,12.70
2019-04-01T16:09:14.075Z,12.70
2019-04-01T16:11:43.308Z,12.70
2019-04-01T16:14:12.454Z,12.70
2019-04-01T16:16:41.622Z,12.60
2019-04-01T16:19:10.843Z,12.60
2019-04-01T16:21:40.015Z,12.60
2019-04-01T16:24:11.105Z,12.60
2019-04-01T16:26:40.135Z,12.50
2019-04-01T16:29:09.407Z,12.50
2019-04-01T16:31:38.614Z,12.50
2019-04-01T16:34:07.761Z,12.40
2019-04-01T16:36:38.118Z,12.40
2019-04-01T16:39:09.811Z,12.40
2019-04-01T16:41:38.983Z,12.30
2019-04-01T16:44:08.128Z,12.30
2019-04-01T16:46:37.371Z,12.30
2019-04-01T16:49:07.560Z,12.20
2019-04-01T16:51:37.006Z,12.20
2019-04-01T16:54:06.279Z,12.10
2019-04-01T16:56:35.530Z,12.10
2019-04-01T16:59:04.789Z,12.10
2019-04-01T17:01:34.106Z,12.00
2019-04-01T17:04:03.430Z,12.00
2019-04-01T17:06:32.627Z,11.90
2019-04-01T17:09:01.851Z,11.90
2019-04-01T17:11:31.254Z,11.80
2019-04-01T17:14:00.561Z,11.80
2019-04-01T17:16:29.811Z,11.70
2019-04-01T17:18:58.955Z,11.60
2019-04-01T17:21:28.129Z,11.60
2019-04-01T17:23:59.156Z,11.60
2019-04-01T17:26:28.352Z,11.60
2019-04-01T17:28:57.539Z,11.50
2019-04-01T17:31:26.693Z,11.40
2019-04-01T17:33:55.874Z,11.40
2019-04-01T17:36:25.087Z,11.30
2019-04-01T17:38:54.263Z,11.30
2019-04-01T17:41:23.489Z,11.20
2019-04-01T17:43:52.665Z,11.10
2019-04-01T17:46:21.895Z,11.10
2019-04-01T17:48:51.151Z,11.00
2019-04-01T17:51:20.392Z,11.00
2019-04-01T17:53:50.123Z,11.00
2019-04-01T17:56:20.192Z,10.90
2019-04-01T17:58:50.421Z,10.90
2019-04-01T18:01:19.775Z,10.80
2019-04-01T18:03:49.027Z,10.80
2019-04-01T18:06:18.247Z,10.70
2019-04-01T18:08:47.416Z,10.70
2019-04-01T18:11:16.628Z,10.70
2019-04-01T18:13:45.807Z,10.60
2019-04-01T18:16:15.031Z,10.60
2019-04-01T18:18:44.287Z,10.50
2019-04-01T18:21:13.431Z,10.50
2019-04-01T18:23:42.605Z,10.40
2019-04-01T18:26:11.823Z,10.40
2019-04-01T18:28:41.237Z,10.30
2019-04-01T18:31:10.810Z,10.30
2019-04-01T18:33:40.051Z,10.30
2019-04-01T18:36:09.277Z,10.20
2019-04-01T18:38:40.936Z,10.20
2019-04-01T18:41:09.402Z,10.10
2019-04-01T18:43:38.724Z,10.10
2019-04-01T18:46:07.954Z,10.10
2019-04-01T18:48:37.122Z,10.10
2019-04-01T18:51:06.298Z,10.10
2019-04-01T18:53:36.296Z,10.00
2019-04-01T18:56:06.267Z,10.00
2019-04-01T18:58:35.594Z,9.90
2019-04-01T19:01:04.987Z,9.90
2019-04-01T19:03:34.175Z,9.80
2019-04-01T19:06:03.417Z,9.80
2019-04-01T19:08:33.245Z,9.80
2019-04-01T19:11:02.883Z,9.70
2019-04-01T19:13:32.148Z,9.60
2019-04-01T19:16:03.082Z,9.60
2019-04-01T19:18:32.255Z,9.60
2019-04-01T19:21:04.721Z,9.60
2019-04-01T19:23:32.366Z,9.60
2019-04-01T19:26:01.519Z,9.60
2019-04-01T19:28:30.695Z,9.50
2019-04-01T19:30:59.927Z,9.40
2019-04-01T19:33:29.148Z,9.40
2019-04-01T19:35:58.426Z,9.40
2019-04-01T19:38:27.623Z,9.40
2019-04-01T19:40:59.685Z,9.30
2019-04-01T19:43:27.691Z,9.30
2019-04-01T19:45:56.934Z,9.20
2019-04-01T19:48:26.074Z,9.20
2019-04-01T19:50:55.335Z,9.20
2019-04-01T19:53:24.740Z,9.10
2019-04-01T19:55:54.106Z,9.10
2019-04-01T19:58:23.271Z,9.10
2019-04-01T20:00:52.588Z,9.00
2019-04-01T20:03:21.731Z,9.00
2019-04-01T20:05:51.048Z,9.00
2019-04-01T20:08:20.251Z,8.90
2019-04-01T20:10:49.503Z,8.90
2019-04-01T20:13:18.655Z,8.90
2019-04-01T20:15:47.895Z,8.80
2019-04-01T20:18:17.044Z,8.80
2019-04-01T20:20:46.290Z,8.80
2019-04-01T20:23:15.443Z,8.80
2019-04-01T20:25:47.381Z,8.70
2019-04-01T20:28:15.555Z,8.70
2019-04-01T20:30:45.119Z,8.60
2019-04-01T20:33:17.849Z,8.60
2019-04-01T20:35:45.137Z,8.60
2019-04-01T20:38:14.307Z,8.50
2019-04-01T20:40:43.530Z,8.50
2019-04-01T20:43:12.775Z,8.50
2019-04-01T20:45:42.897Z,8.50
2019-04-01T20:48:12.334Z,8.50
2019-04-01T20:50:41.563Z,8.50
2019-04-01T20:53:10.842Z,8.40
2019-04-01T20:55:48.069Z,8.40
2019-04-01T20:58:10.904Z,8.40
2019-04-01T21:00:40.127Z,8.30
2019-04-01T21:03:09.294Z,8.30
2019-04-01T21:05:38.435Z,8.30
2019-04-01T21:08:07.679Z,8.30
2019-04-01T21:10:36.819Z,8.30
2019-04-01T21:13:06.298Z,8.30
2019-04-01T21:15:35.839Z,8.30
2019-04-01T21:18:05.219Z,8.30
2019-04-01T21:20:34.388Z,8.30
2019-04-01T21:23:03.569Z,8.30
2019-04-01T21:25:32.854Z,8.30
2019-04-01T21:28:02.040Z,8.30
2019-04-01T21:30:31.167Z,8.30
2019-04-01T21:33:00.415Z,8.20
2019-04-01T21:35:29.563Z,8.20
2019-04-01T21:37:58.799Z,8.30
2019-04-01T21:40:30.235Z,8.20
2019-04-01T21:42:59.420Z,8.20
2019-04-01T21:45:28.555Z,8.20
2019-04-01T21:47:57.737Z,8.10
2019-04-01T21:50:29.493Z,8.00
2019-04-01T21:52:57.851Z,8.00
2019-04-01T21:55:26.995Z,8.00
2019-04-01T21:57:56.166Z,8.00
2019-04-01T22:00:43.485Z,7.90
2019-04-01T22:03:13.411Z,7.80
2019-04-01T22:05:43.429Z,7.80
2019-04-01T22:08:13.115Z,7.80
2019-04-01T22:10:42.343Z,7.80
2019-04-01T22:13:11.488Z,7.70
2019-04-01T22:15:40.802Z,7.70
2019-04-01T22:18:10.030Z,7.50
2019-04-01T22:20:42.476Z,7.50
2019-04-01T22:23:10.147Z,7.40
2019-04-01T22:25:39.331Z,7.40
2019-04-01T22:28:08.475Z,7.30
2019-04-01T22:30:37.639Z,7.30
2019-04-01T22:33:06.911Z,7.20
2019-04-01T22:35:38.841Z,7.10
2019-04-01T22:38:06.987Z,7.10
2019-04-01T22:40:36.387Z,7.00
2019-04-01T22:43:13.067Z,6.90
2019-04-01T22:45:42.245Z,6.80
2019-04-01T22:48:11.400Z,6.70
2019-04-01T22:50:40.675Z,6.70
2019-04-01T22:53:09.887Z,6.70
2019-04-01T22:55:39.055Z,6.70
2019-04-01T22:58:08.299Z,6.70
2019-04-01T23:00:37.467Z,6.60
2019-04-01T23:03:06.683Z,6.60
2019-04-01T23:05:37.218Z,6.60
2019-04-01T23:08:06.600Z,6.50
2019-04-01T23:10:35.778Z,6.50
2019-04-01T23:13:04.986Z,6.50
2019-04-01T23:15:34.190Z,6.40
2019-04-01T23:18:03.339Z,6.30
2019-04-01T23:20:33.475Z,6.20
2019-04-01T23:23:03.071Z,6.20
2019-04-01T23:25:32.335Z,6.20
2019-04-01T23:28:01.476Z,6.20
2019-04-01T23:30:30.723Z,6.20
2019-04-01T23:32:59.944Z,6.20
2019-04-01T23:35:29.099Z,6.10
2019-04-01T23:37:58.347Z,6.10
2019-04-01T23:40:27.496Z,6.00
2019-04-01T23:42:57.669Z,6.00
2019-04-01T23:45:27.235Z,5.90
2019-04-01T23:47:56.410Z,5.90
2019-04-01T23:50:25.624Z,5.90
2019-04-01T23:52:54.835Z,5.90
2019-04-01T23:55:24.010Z,5.90
2019-04-01T23:57:54.109Z,5.80
